METAR Data
IDs: Format: Raw Decoded Include TAF

Data at: 1016 UTC 18 Jan 2022

K5H4 181015Z AUTO 00000KT 7SM CLR M07/M07 A2937 RMK AO2
K5H4 180955Z AUTO 00000KT 7SM CLR M07/M07 A2937 RMK AO2
K5H4 180935Z AUTO 16004KT 7SM BKN100 M06/M06 A2938 RMK AO2
K5H4 180915Z AUTO 12006KT 6SM BR OVC110 M06/M06 A2938 RMK AO2
K5H4 180855Z AUTO 14006KT 6SM BR SCT095 OVC120 M06/M06 A2940 RMK AO2
K5H4 180835Z AUTO 13007KT 6SM BR BKN085 OVC110 M05/M05 A2941 RMK AO2
K5H4 180815Z AUTO 11008KT 5SM BR OVC085 M05/M05 A2942 RMK AO2
K5H4 180755Z AUTO 12008KT 5SM BR OVC095 M05/M05 A2943 RMK AO2
K5H4 180735Z AUTO 13008KT 5SM BR OVC095 M05/M05 A2945 RMK AO2
K5H4 180715Z AUTO 12007KT 5SM BR BKN100 BKN120 M05/M05 A2946 RMK AO2
K5H4 180655Z AUTO 14008KT 6SM BR FEW005 SCT100 M04/M04 A2946 RMK AO2
K5H4 180635Z AUTO 13008KT 6SM BR BKN005 OVC090 M04/M04 A2948 RMK AO2
K5H4 180615Z AUTO 15013KT 5SM BR OVC004 M04/M04 A2948 RMK AO2
K5H4 180555Z AUTO 15014KT 4SM BR OVC004 M04/M04 A2949 RMK AO2
K5H4 180535Z AUTO 15013KT 5SM BR OVC004 M04/M04 A2952 RMK AO2
K5H4 180515Z AUTO 15012KT 5SM BR OVC004 M04/M04 A2954 RMK AO2
K5H4 180455Z AUTO 15012KT 5SM BR OVC004 M04/M04 A2957 RMK AO2
K5H4 180435Z AUTO 15013KT 4SM BR OVC003 M04/M04 A2958 RMK AO2
K5H4 180415Z AUTO 14012KT 3SM BR OVC003 M05/M04 A2960 RMK AO2
K5H4 180355Z AUTO 13/70833314G19KT 5SM BR OVC004 M05/M04 A2960 RMK AO2
K5H4 180335Z AUTO 14012G18KT 7SM OVC004 M04/M04 A2962 RMK AO2
K5H4 180315Z AUTO 15015KT 6SM BR OVC003 M04/M04 A2964 RMK AO2
K5H4 180255Z AUTO 15014KT 4SM BR OVC003 M04/M04 A2964 RMK AO2
K5H4 180235Z AUTO 14012G17KT 5SM BR OVC003 M04/M04 A2966 RMK AO2
K5H4 180215Z AUTO 15013KT 4SM BR OVC003 M04/M04 A2967 RMK AO2
K5H4 180155Z AUTO 13012G18KT 3SM -SN OVC003 M04/M04 A2967 RMK AO2
K5H4 180135Z AUTO 13012KT 4SM -SN OVC003 M04/M04 A2968 RMK AO2
K5H4 180115Z AUTO 13011KT 5SM BR OVC003 M04/M04 A2968 RMK AO2
K5H4 180055Z AUTO 13013KT 5SM BR OVC003 M04/M04 A2969 RMK AO2
K5H4 180035Z AUTO 13008G14KT 4SM BR OVC003 M04/M04 A2970 RMK AO2
K5H4 180015Z AUTO 36004G15KT 5SM BR OVC003 M04/M04 A2970 RMK AO2
K5H4 172355Z AUTO 12013G21KT 4SM -SN OVC003 M04/M04 A2970 RMK AO2
K5H4 172335Z AUTO 12013KT 5SM BR OVC004 M04/M04 A2971 RMK AO2
K5H4 172315Z AUTO 12015KT 6SM -SN OVC004 M04/M04 A2971 RMK AO2
K5H4 172255Z AUTO 11017KT 8SM -SN OVC005 M04/M04 A2972 RMK AO2
K5H4 172235Z AUTO 11016KT 9SM -SN OVC005 M04/M04 A2972 RMK AO2
K5H4 172215Z AUTO 11017KT 9SM -SN OVC006 M04/M04 A2972 RMK AO2
K5H4 172155Z AUTO 12013KT 9SM -SN OVC007 M03/M04 A2972 RMK AO2
K5H4 172135Z AUTO 09014KT 10SM BKN008 M03/M04 A2974 RMK AO2
K5H4 172115Z AUTO 10013KT 10SM CLR M03/M04 A2973 RMK AO2
K5H4 172055Z AUTO 10013KT 10SM CLR M03/M04 A2973 RMK AO2
K5H4 172035Z AUTO 09013KT 10SM SCT080 M03/M04 A2973 RMK AO2
K5H4 172015Z AUTO 10010KT 10SM OVC080 M03/M04 A2973 RMK AO2
K5H4 171955Z AUTO 10012KT 10SM BKN080 M03/M04 A2973 RMK AO2
K5H4 171935Z AUTO 09012KT 10SM FEW080 M03/M04 A2974 RMK AO2
K5H4 171915Z AUTO 08010KT 10SM BKN080 M03/M04 A2973 RMK AO2
K5H4 171855Z AUTO 07012KT 10SM OVC080 M03/M04 A2977 RMK AO2
K5H4 171835Z AUTO 07012KT 10SM OVC080 M02/M04 A2976 RMK AO2
K5H4 171815Z AUTO 07012KT 10SM OVC080 M02/M04 A2976 RMK AO2
K5H4 171755Z AUTO 08008KT 10SM OVC080 M02/M03 A2978 RMK AO2
K5H4 171735Z AUTO 09005KT 10SM OVC080 M02/M03 A2977 RMK AO2
K5H4 171715Z AUTO 10006KT 10SM BKN080 OVC090 M02/M04 A2977 RMK AO2
K5H4 171655Z AUTO 12005KT 10SM SCT075 OVC090 M02/M04 A2977 RMK AO2
K5H4 171635Z AUTO 12005KT 10SM BKN049 BKN075 OVC090 M03/M04 A2978 RMK AO2
K5H4 171615Z AUTO 12005KT 10SM OVC049 M03/M04 A2978 RMK AO2
K5H4 171555Z AUTO 12006KT 10SM OVC049 M03/M04 A2977 RMK AO2
K5H4 171535Z AUTO 10007KT 10SM OVC050 M03/M04 A2977 RMK AO2
K5H4 171515Z AUTO 00000KT 10SM OVC055 M04/M04 A2977 RMK AO2
K5H4 171455Z AUTO 18003KT 10SM OVC055 M03/M04 A2976 RMK AO2
K5H4 171435Z AUTO 18005KT 10SM SCT050 OVC055 M04/M04 A2976 RMK AO2
K5H4 171415Z AUTO 00000KT 10SM OVC050 M04/M04 A2976 RMK AO2
K5H4 171355Z AUTO 00000KT 10SM OVC055 M04/M05 A2977 RMK AO2
K5H4 171335Z AUTO 00000KT 10SM OVC055 M04/M05 A2978 RMK AO2
K5H4 171315Z AUTO 20005KT 10SM BKN060 OVC070 M04/M05 A2977 RMK AO2
K5H4 171255Z AUTO 00000KT 10SM FEW055 OVC070 M04/M05 A2978 RMK AO2
K5H4 171235Z AUTO 23003KT 10SM FEW055 OVC070 M04/M05 A2978 RMK AO2
K5H4 171215Z AUTO 00000KT 10SM FEW047 SCT055 BKN070 M04/M05 A2978 RMK AO2
K5H4 171155Z AUTO 00000KT 10SM FEW055 OVC065 M04/M05 A2978 RMK AO2
K5H4 171135Z AUTO 00000KT 10SM BKN055 OVC070 M04/M05 A2979 RMK AO2
K5H4 171115Z AUTO 24004KT 10SM BKN060 OVC070 M04/M05 A2979 RMK AO2
K5H4 171055Z AUTO 23004KT 10SM FEW060 BKN075 OVC100 M04/M05 A2979 RMK AO2
K5H4 171035Z AUTO 24005KT 10SM SCT060 BKN075 OVC100 M04/M05 A2980 RMK AO2
K5H4 171015Z AUTO VRB06KT 10SM BKN070 OVC075 M05/M05 A2980 RMK AO2
K5H4 170955Z AUTO 22008KT 10SM OVC075 M05/M06 A2981 RMK AO2
K5H4 170935Z AUTO 22008KT 10SM FEW060 SCT075 OVC100 M05/M06 A2981 RMK AO2
K5H4 170915Z AUTO 23010KT 10SM FEW060 BKN075 OVC100 M05/M06 A2982 RMK AO2
K5H4 170855Z AUTO 23010KT 10SM SCT075 SCT095 OVC120 M05/M06 A2983 RMK AO2
K5H4 170835Z AUTO 23009KT 10SM BKN120 M06/M06 A2984 RMK AO2
K5H4 170815Z AUTO 23009KT 10SM CLR M06/M07 A2984 RMK AO2
K5H4 170755Z AUTO 24006KT 10SM CLR M07/M07 A2984 RMK AO2
K5H4 170735Z AUTO 23006KT 10SM CLR M07/M08 A2985 RMK AO2
K5H4 170715Z AUTO 22008KT 10SM CLR M07/M08 A2985 RMK AO2
K5H4 170655Z AUTO 22007KT 10SM CLR M08/M08 A2985 RMK AO2
K5H4 170635Z AUTO 21009KT 10SM CLR M08/M08 A2986 RMK AO2
K5H4 170615Z AUTO 21005KT 10SM CLR M09/M09 A2987 RMK AO2
K5H4 170555Z AUTO 00000KT 10SM CLR M09/M09 A2987 RMK AO2
K5H4 170535Z AUTO 24005KT 10SM CLR M08/M08 A2988 RMK AO2
K5H4 170515Z AUTO 22007KT 10SM CLR M08/M08 A2988 RMK AO2
K5H4 170455Z AUTO 22006KT 10SM FEW032 M06/M06 A2989 RMK AO2
K5H4 170435Z AUTO 24008KT 10SM BKN033 BKN038 M06/M06 A2990 RMK AO2
K5H4 170415Z AUTO 23006KT 10SM SCT024 BKN035 M04/M05 A2990 RMK AO2
K5H4 170355Z AUTO 26008KT 10SM OVC023 M02/M03 A2990 RMK AO2
K5H4 170335Z AUTO 26008KT 10SM OVC019 M02/M03 A2991 RMK AO2
K5H4 170315Z AUTO 26007KT 10SM OVC019 M01/M02 A2992 RMK AO2
K5H4 170255Z AUTO 26007KT 10SM OVC017 M01/M02 A2993 RMK AO2
K5H4 170235Z AUTO 27008KT 10SM OVC014 M01/M02 A2993 RMK AO2
K5H4 170215Z AUTO 28009KT 10SM OVC014 M01/M02 A2994 RMK AO2
K5H4 170155Z AUTO 27008KT 10SM BKN014 OVC021 M02/M02 A2994 RMK AO2
K5H4 170135Z AUTO 26009KT 10SM OVC022 M02/M02 A2993 RMK AO2
K5H4 170115Z AUTO 36004KT 10SM FEW024 OVC046 M02/M02 A2994 RMK AO2
K5H4 170055Z AUTO 36004KT 10SM SCT018 OVC043 M02/M02 A2993 RMK AO2
K5H4 170035Z AUTO 27006KT 10SM BKN017 OVC041 M01/M02 A2994 RMK AO2
K5H4 170015Z AUTO 29007KT 10SM OVC014 M01/M02 A2994 RMK AO2
K5H4 162355Z AUTO 28006KT 10SM BKN012 OVC018 M02/M02 A2995 RMK AO2
K5H4 162335Z AUTO 29009KT 10SM FEW012 BKN018 BKN023 M02/M02 A2995 RMK AO2
K5H4 162315Z AUTO 28008KT 10SM FEW012 BKN018 OVC022 M01/M02 A2995 RMK AO2
K5H4 162255Z AUTO 28006KT 10SM OVC022 M01/M02 A2994 RMK AO2
K5H4 162235Z AUTO 31007KT 10SM OVC023 M01/M02 A2994 RMK AO2